Time;durP1;ratioP1;P1;durP2;ratioP2;P2;SDS_P1;SDS_P2;PMS_P1;PMS_P2;Temp;Humidity;BMP_temperature;BMP_pressure;BME280_temperature;BME280_humidity;BME280_pressure;Samples;Min_cycle;Max_cycle;Signal;HPM_P1;HPM_P2
2023/05/22 00:00:12;;;;;;;;;;;;;;;16.27;76.66;101453.25;5068498;28;19916;-60
2023/05/22 00:02:37;;;;;;;;;;;;;;;16.25;76.72;101450.75;5078511;28;19920;-60
2023/05/22 00:05:05;;;;;;;;;;;;;;;16.23;77.13;101458.16;5077439;28;19922;-60
2023/05/22 00:07:31;;;;;;;;;;;;;;;16.20;77.72;101458.53;5076085;28;21337;-60
2023/05/22 00:09:56;;;;;;;;;;;;;;;16.14;77.14;101451.25;5083160;28;19916;-60
2023/05/22 00:12:21;;;;;;;;;;;;;;;16.13;77.37;101457.63;5080737;28;19977;-60
2023/05/22 00:14:46;;;;;;;;;;;;;;;16.09;78.27;101456.38;5079864;28;19966;-60
2023/05/22 00:17:13;;;;;;;;;;;;;;;16.03;78.24;101443.75;5083059;28;19966;-60
2023/05/22 00:19:39;;;;;;;;;;;;;;;15.99;78.15;101443.28;5080135;28;19932;-60
2023/05/22 00:22:04;;;;;;;;;;;;;;;15.96;78.24;101449.03;5076904;28;19928;-60
2023/05/22 00:24:30;;;;;;;;;;;;;;;15.96;79.03;101451.72;5081184;28;19923;-59
2023/05/22 00:26:55;;;;;;;;;;;;;;;15.98;78.81;101447.00;5074579;28;19924;-60
2023/05/22 00:29:21;;;;;;;;;;;;;;;15.99;79.33;101445.97;5073409;28;19912;-59
2023/05/22 00:31:46;;;;;;;;;;;;;;;15.98;79.24;101447.00;5079094;28;19916;-60
2023/05/22 00:34:11;;;;;;;;;;;;;;;15.99;79.41;101445.97;5076143;28;19919;-60
2023/05/22 00:36:36;;;;;;;;;;;;;;;16.02;79.25;101439.41;5073112;28;20041;-60
2023/05/22 00:39:01;;;;;;;;;;;;;;;16.05;79.47;101436.34;5074779;28;19924;-61
2023/05/22 00:41:26;;;;;;;;;;;;;;;16.07;79.68;101436.97;5075343;28;20047;-60
2023/05/22 00:43:52;;;;;;;;;;;;;;;16.08;79.58;101438.63;5075894;28;19916;-60
2023/05/22 00:46:20;;;;;;;;;;;;;;;16.11;79.16;101438.25;5072898;28;20417;-60
2023/05/22 00:48:45;;;;;;;;;;;;;;;16.11;79.74;101432.88;5078294;28;19931;-60
2023/05/22 00:51:11;;;;;;;;;;;;;;;16.13;79.53;101440.72;5074646;28;19928;-60
2023/05/22 00:53:36;;;;;;;;;;;;;;;16.14;79.49;101440.53;5081351;28;19916;-60
2023/05/22 00:56:02;;;;;;;;;;;;;;;16.14;79.23;101442.38;5075312;28;19924;-60
2023/05/22 00:58:27;;;;;;;;;;;;;;;16.10;79.25;101441.94;5078141;28;19917;-60
2023/05/22 01:00:54;;;;;;;;;;;;;;;16.04;79.24;101440.88;5080291;28;20309;-60
2023/05/22 01:03:24;;;;;;;;;;;;;;;16.01;79.31;101440.44;5080821;28;19924;-60
2023/05/22 01:05:50;;;;;;;;;;;;;;;16.00;79.54;101438.75;5072911;28;20404;-60
2023/05/22 01:08:15;;;;;;;;;;;;;;;16.01;79.65;101435.06;5073003;28;19917;-60
2023/05/22 01:10:41;;;;;;;;;;;;;;;15.99;79.47;101435.25;5077364;28;19935;-59
2023/05/22 01:13:21;;;;;;;;;;;;;;;15.94;80.04;101435.00;5076852;28;19916;-59
2023/05/22 01:16:00;;;;;;;;;;;;;;;15.87;80.65;101435.94;5077181;28;19924;-60
2023/05/22 01:18:28;;;;;;;;;;;;;;;15.78;81.11;101438.75;5072858;28;19916;-60
2023/05/22 01:20:56;;;;;;;;;;;;;;;15.73;81.47;101425.09;5079403;28;19924;-60
2023/05/22 01:23:22;;;;;;;;;;;;;;;15.67;80.92;101431.22;5078282;28;19916;-60
2023/05/22 01:26:05;;;;;;;;;;;;;;;15.64;81.01;101428.09;5085787;28;19923;-60
2023/05/22 01:28:30;;;;;;;;;;;;;;;15.62;81.43;101428.28;5075966;28;19919;-60
2023/05/22 01:31:09;;;;;;;;;;;;;;;15.63;82.03;101426.44;5077244;28;19921;-59
2023/05/22 01:33:40;;;;;;;;;;;;;;;15.59;81.99;101433.16;5073230;28;20054;-60
2023/05/22 01:36:06;;;;;;;;;;;;;;;15.57;82.35;101425.28;5075639;28;19924;-60
2023/05/22 01:38:32;;;;;;;;;;;;;;;15.56;83.05;101420.13;5079570;28;19927;-60
2023/05/22 01:40:58;;;;;;;;;;;;;;;15.54;82.96;101420.31;5070290;28;19921;-60
2023/05/22 01:43:23;;;;;;;;;;;;;;;15.51;82.77;101418.03;5079710;28;20412;-60
2023/05/22 01:45:48;;;;;;;;;;;;;;;15.49;82.20;101425.41;5075046;28;20019;-60
2023/05/22 01:48:14;;;;;;;;;;;;;;;15.45;83.29;101424.97;5081470;28;19995;-60
2023/05/22 01:50:40;;;;;;;;;;;;;;;15.41;83.36;101417.50;5073163;28;19924;-60
2023/05/22 01:53:18;;;;;;;;;;;;;;;15.33;83.85;101417.63;5079426;28;20002;-59
2023/05/22 01:55:55;;;;;;;;;;;;;;;15.23;84.19;101417.91;5070163;28;20317;-60
2023/05/22 01:58:25;;;;;;;;;;;;;;;15.19;84.45;101416.59;5068406;28;19927;-60
2023/05/22 02:00:53;;;;;;;;;;;;;;;15.16;84.00;101411.63;5072567;28;20394;-60
2023/05/22 02:03:20;;;;;;;;;;;;;;;15.09;84.46;101419.59;5077831;28;19917;-60
2023/05/22 02:05:48;;;;;;;;;;;;;;;15.02;84.52;101418.66;5079483;28;20397;-60
2023/05/22 02:08:14;;;;;;;;;;;;;;;14.96;85.03;101419.38;5083250;28;19919;-60
2023/05/22 02:10:41;;;;;;;;;;;;;;;14.92;85.39;101419.94;5078415;28;19916;-60
2023/05/22 02:13:06;;;;;;;;;;;;;;;14.85;85.91;101412.66;5086329;28;19912;-60
2023/05/22 02:15:32;;;;;;;;;;;;;;;14.72;86.19;101411.63;5080772;28;19916;-59
2023/05/22 02:17:58;;;;;;;;;;;;;;;14.61;86.53;101414.78;5077993;28;20358;-60
2023/05/22 02:20:23;;;;;;;;;;;;;;;14.53;86.44;101410.34;5090779;28;19951;-60
2023/05/22 02:22:48;;;;;;;;;;;;;;;14.41;85.99;101406.41;5086460;28;19967;-60
2023/05/22 02:25:15;;;;;;;;;;;;;;;14.27;85.63;101410.72;5079395;28;20417;-60
2023/05/22 02:27:44;;;;;;;;;;;;;;;14.19;85.96;101414.31;5075270;28;20011;-60
2023/05/22 02:30:10;;;;;;;;;;;;;;;14.18;86.74;101406.47;5086179;28;20007;-60
2023/05/22 02:32:35;;;;;;;;;;;;;;;14.19;87.00;101402.78;5082014;28;20342;-60
2023/05/22 02:35:01;;;;;;;;;;;;;;;14.18;87.52;101401.13;5073611;28;19916;-60
2023/05/22 02:37:26;;;;;;;;;;;;;;;14.12;88.13;101408.00;5083418;28;19941;-61
2023/05/22 02:39:51;;;;;;;;;;;;;;;14.06;88.70;101400.72;5079389;28;20390;-61
2023/05/22 02:42:16;;;;;;;;;;;;;;;14.01;88.31;101399.59;5076364;28;19920;-61
2023/05/22 02:44:41;;;;;;;;;;;;;;;13.91;87.24;101399.84;5080328;28;20484;-61
2023/05/22 02:47:07;;;;;;;;;;;;;;;13.80;87.00;101403.75;5084948;28;19921;-61
2023/05/22 02:49:32;;;;;;;;;;;;;;;13.73;87.33;101397.47;5082877;28;19926;-61
2023/05/22 02:51:57;;;;;;;;;;;;;;;13.70;87.47;101391.66;5073996;28;20297;-61
2023/05/22 02:54:22;;;;;;;;;;;;;;;13.69;87.49;101385.47;5079126;28;19916;-61
2023/05/22 02:56:47;;;;;;;;;;;;;;;13.71;88.33;101394.16;5077321;28;19934;-61
2023/05/22 02:59:13;;;;;;;;;;;;;;;13.68;88.86;101383.81;5080283;28;20432;-61
2023/05/22 03:01:38;;;;;;;;;;;;;;;13.67;88.97;101382.16;5081136;28;20409;-60
2023/05/22 03:04:04;;;;;;;;;;;;;;;13.64;88.87;101394.03;5085449;28;19931;-61
2023/05/22 03:06:30;;;;;;;;;;;;;;;13.60;88.45;101387.38;5083015;28;19924;-61
2023/05/22 03:08:55;;;;;;;;;;;;;;;13.57;88.43;101393.03;5077059;28;19920;-61
2023/05/22 03:11:20;;;;;;;;;;;;;;;13.53;88.41;101388.25;5082066;28;19919;-61
2023/05/22 03:13:46;;;;;;;;;;;;;;;13.45;89.19;101377.63;5084825;28;19916;-61
2023/05/22 03:16:11;;;;;;;;;;;;;;;13.36;90.26;101382.19;5076796;28;19920;-61
2023/05/22 03:18:36;;;;;;;;;;;;;;;13.29;90.83;101382.03;5078913;28;20396;-61
2023/05/22 03:21:01;;;;;;;;;;;;;;;13.29;91.42;101386.53;5081171;28;19920;-61
2023/05/22 03:23:27;;;;;;;;;;;;;;;13.28;92.14;101388.38;5084808;28;19923;-61
2023/05/22 03:25:52;;;;;;;;;;;;;;;13.27;92.01;101386.72;5080862;28;19927;-61
2023/05/22 03:28:17;;;;;;;;;;;;;;;13.27;92.37;101383.22;5073097;28;19916;-60
2023/05/22 03:30:42;;;;;;;;;;;;;;;13.26;93.09;101386.91;5070220;28;19999;-60
2023/05/22 03:33:07;;;;;;;;;;;;;;;13.21;93.11;101376.75;5076245;28;20373;-60
2023/05/22 03:35:33;;;;;;;;;;;;;;;13.14;92.85;101383.75;5077622;28;19955;-61
2023/05/22 03:37:58;;;;;;;;;;;;;;;13.03;91.98;101384.16;5074564;28;19916;-60
2023/05/22 03:40:23;;;;;;;;;;;;;;;12.93;91.30;101383.50;5071609;28;19932;-60
2023/05/22 03:42:48;;;;;;;;;;;;;;;12.85;90.69;101379.06;5086320;28;19920;-61
2023/05/22 03:45:14;;;;;;;;;;;;;;;12.78;91.50;101372.75;5079216;28;20294;-61
2023/05/22 03:47:39;;;;;;;;;;;;;;;12.77;92.51;101373.75;5082489;28;19959;-60
2023/05/22 03:50:04;;;;;;;;;;;;;;;12.70;93.42;101370.09;5073115;28;19916;-60
2023/05/22 03:52:30;;;;;;;;;;;;;;;12.63;93.99;101369.94;5077210;28;19916;-61
2023/05/22 03:54:55;;;;;;;;;;;;;;;12.59;94.17;101370.47;5077524;28;19952;-60
2023/05/22 03:57:20;;;;;;;;;;;;;;;12.55;93.89;101375.31;5078118;28;19923;-60
2023/05/22 03:59:45;;;;;;;;;;;;;;;12.53;94.45;101372.00;5069966;28;19912;-60
2023/05/22 04:02:11;;;;;;;;;;;;;;;12.52;94.25;101375.66;5069496;28;20466;-60
2023/05/22 04:04:37;;;;;;;;;;;;;;;12.53;93.69;101379.16;5074774;28;19915;-60
2023/05/22 04:07:06;;;;;;;;;;;;;;;12.53;93.10;101373.81;5076407;28;19928;-60
2023/05/22 04:09:33;;;;;;;;;;;;;;;12.56;93.40;101373.47;5074747;28;19912;-60
2023/05/22 04:12:00;;;;;;;;;;;;;;;12.57;93.77;101381.31;5075682;28;19916;-60
2023/05/22 04:14:25;;;;;;;;;;;;;;;12.58;93.63;101374.97;5079837;28;19989;-60
2023/05/22 04:16:50;;;;;;;;;;;;;;;12.63;94.74;101382.44;5081271;28;20321;-60
2023/05/22 04:19:16;;;;;;;;;;;;;;;12.65;94.29;101377.78;5077873;28;19942;-60
2023/05/22 04:21:42;;;;;;;;;;;;;;;12.64;93.88;101384.94;5072465;28;19927;-60
2023/05/22 04:24:08;;;;;;;;;;;;;;;12.61;93.41;101379.94;5080599;28;19923;-60
2023/05/22 04:26:33;;;;;;;;;;;;;;;12.62;92.96;101378.94;5078402;28;19932;-60
2023/05/22 04:28:58;;;;;;;;;;;;;;;12.66;93.19;101387.44;5070674;28;19955;-61
2023/05/22 04:31:23;;;;;;;;;;;;;;;12.68;93.17;101391.59;5075663;28;19917;-60
2023/05/22 04:33:49;;;;;;;;;;;;;;;12.70;93.06;101397.56;5075631;28;20362;-60
2023/05/22 04:36:14;;;;;;;;;;;;;;;12.71;92.72;101396.56;5077070;28;19917;-60
2023/05/22 04:38:40;;;;;;;;;;;;;;;12.74;92.38;101402.59;5069380;28;20014;-60
2023/05/22 04:41:07;;;;;;;;;;;;;;;12.77;92.76;101397.75;5077631;28;19927;-60
2023/05/22 04:43:32;;;;;;;;;;;;;;;12.80;93.34;101392.06;5073791;28;19962;-60
2023/05/22 04:45:57;;;;;;;;;;;;;;;12.83;93.47;101402.38;5081120;28;19916;-60
2023/05/22 04:48:23;;;;;;;;;;;;;;;12.85;92.44;101407.53;5075792;28;19920;-60
2023/05/22 04:50:48;;;;;;;;;;;;;;;12.87;91.67;101402.88;5076502;28;19951;-60
2023/05/22 04:53:14;;;;;;;;;;;;;;;12.88;91.77;101404.53;5073362;28;19920;-60
2023/05/22 04:55:39;;;;;;;;;;;;;;;12.90;92.53;101400.69;5074300;28;20358;-60
2023/05/22 04:58:05;;;;;;;;;;;;;;;12.94;93.17;101409.16;5077720;28;20545;-59
2023/05/22 05:00:30;;;;;;;;;;;;;;;12.95;92.65;101409.00;5074012;28;20015;-59
2023/05/22 05:02:56;;;;;;;;;;;;;;;12.98;93.02;101410.47;5070142;28;20015;-60
2023/05/22 05:05:21;;;;;;;;;;;;;;;13.01;92.68;101412.84;5081657;28;19916;-59
2023/05/22 05:07:47;;;;;;;;;;;;;;;12.97;93.41;101398.16;5075201;28;21256;-59
2023/05/22 05:10:12;;;;;;;;;;;;;;;13.07;92.73;101417.47;5069284;28;19913;-59
2023/05/22 05:12:37;;;;;;;;;;;;;;;13.13;93.91;101422.09;5069080;28;19912;-59
2023/05/22 05:15:02;;;;;;;;;;;;;;;13.18;94.39;101424.28;5074564;28;20286;-59
2023/05/22 05:17:27;;;;;;;;;;;;;;;13.22;94.03;101422.94;5077063;28;19917;-59
2023/05/22 05:19:53;;;;;;;;;;;;;;;13.27;94.19;101410.72;5073099;28;19927;-59
2023/05/22 05:22:18;;;;;;;;;;;;;;;13.30;93.63;101412.25;5079828;28;20006;-60
2023/05/22 05:24:43;;;;;;;;;;;;;;;13.32;93.29;101415.56;5076668;28;19924;-59
2023/05/22 05:27:08;;;;;;;;;;;;;;;13.35;94.52;101412.53;5079521;28;19937;-59
2023/05/22 05:29:33;;;;;;;;;;;;;;;13.37;94.78;101415.88;5072601;28;20296;-59
2023/05/22 05:31:58;;;;;;;;;;;;;;;13.41;95.44;101419.00;5072371;28;19912;-59
2023/05/22 05:34:24;;;;;;;;;;;;;;;13.42;95.61;101415.34;5070288;28;19999;-59
2023/05/22 05:36:51;;;;;;;;;;;;;;;13.44;94.65;101424.81;5077642;28;19924;-59
2023/05/22 05:39:16;;;;;;;;;;;;;;;13.48;94.73;101428.81;5074852;28;19916;-59
2023/05/22 05:41:41;;;;;;;;;;;;;;;13.52;95.15;101429.28;5081810;28;20046;-59
2023/05/22 05:44:06;;;;;;;;;;;;;;;13.54;95.30;101430.75;5070280;28;19920;-59
2023/05/22 05:46:31;;;;;;;;;;;;;;;13.58;95.67;101424.06;5075969;28;19970;-59
2023/05/22 05:48:57;;;;;;;;;;;;;;;13.63;95.05;101424.41;5072277;28;19912;-59
2023/05/22 05:51:22;;;;;;;;;;;;;;;13.66;95.05;101425.88;5072503;28;19973;-60
2023/05/22 05:53:47;;;;;;;;;;;;;;;13.69;93.87;101428.19;5077805;28;19931;-60
2023/05/22 05:56:13;;;;;;;;;;;;;;;13.73;94.42;101429.50;5071738;28;19927;-60
2023/05/22 05:58:38;;;;;;;;;;;;;;;13.82;94.11;101432.94;5070264;28;19917;-60
2023/05/22 06:01:04;;;;;;;;;;;;;;;13.89;94.79;101429.41;5076819;28;19927;-60
2023/05/22 06:03:29;;;;;;;;;;;;;;;13.95;95.08;101436.69;5076477;28;20394;-60
2023/05/22 06:05:56;;;;;;;;;;;;;;;14.06;95.37;101447.97;5087598;28;19916;-58
2023/05/22 06:08:21;;;;;;;;;;;;;;;14.14;95.68;101453.22;5087956;28;19939;-59
2023/05/22 06:10:47;;;;;;;;;;;;;;;14.24;95.85;101459.19;5086385;28;20331;-60
2023/05/22 06:13:12;;;;;;;;;;;;;;;14.27;95.83;101451.63;5079794;28;19969;-60
2023/05/22 06:15:37;;;;;;;;;;;;;;;14.34;94.72;101454.41;5084599;28;20003;-60
2023/05/22 06:18:03;;;;;;;;;;;;;;;14.38;94.81;101452.19;5082501;28;21071;-60
2023/05/22 06:20:28;;;;;;;;;;;;;;;14.43;95.42;101447.16;5080155;28;19935;-60
2023/05/22 06:22:53;;;;;;;;;;;;;;;14.51;95.01;101453.28;5084970;28;19928;-60
2023/05/22 06:25:19;;;;;;;;;;;;;;;14.56;94.27;101455.41;5084426;28;20346;-60
2023/05/22 06:27:44;;;;;;;;;;;;;;;14.61;93.60;101447.69;5080636;28;19920;-60
2023/05/22 06:30:09;;;;;;;;;;;;;;;14.71;94.07;101453.59;5075958;28;20030;-60
2023/05/22 06:32:35;;;;;;;;;;;;;;;14.80;93.83;101449.00;5083130;28;19967;-61
2023/05/22 06:35:00;;;;;;;;;;;;;;;14.84;94.08;101455.66;5085645;28;20487;-60
2023/05/22 06:37:25;;;;;;;;;;;;;;;14.89;94.10;101463.94;5086580;28;19916;-60
2023/05/22 06:39:50;;;;;;;;;;;;;;;14.96;93.87;101458.69;5081454;28;19919;-60
2023/05/22 06:42:16;;;;;;;;;;;;;;;15.06;94.18;101469.97;5081470;28;19916;-60
2023/05/22 06:44:41;;;;;;;;;;;;;;;15.10;93.98;101474.75;5090668;28;19913;-60
2023/05/22 06:47:06;;;;;;;;;;;;;;;15.17;94.27;101477.50;5085217;28;19927;-60
2023/05/22 06:49:31;;;;;;;;;;;;;;;15.22;93.93;101480.44;5082952;28;20324;-60
2023/05/22 06:51:57;;;;;;;;;;;;;;;15.27;93.71;101477.22;5075362;28;19920;-61
2023/05/22 06:54:22;;;;;;;;;;;;;;;15.33;93.41;101481.84;5083012;28;20410;-60
2023/05/22 06:56:47;;;;;;;;;;;;;;;15.39;93.65;101479.25;5085168;28;20367;-60
2023/05/22 06:59:12;;;;;;;;;;;;;;;15.44;93.30;101481.38;5080286;28;19921;-60
2023/05/22 07:01:38;;;;;;;;;;;;;;;15.46;93.09;101477.47;5078894;28;19916;-60
2023/05/22 07:04:07;;;;;;;;;;;;;;;15.46;93.04;101477.47;5074715;28;20413;-60
2023/05/22 07:06:37;;;;;;;;;;;;;;;15.39;92.56;101465.88;5079191;28;19919;-60
2023/05/22 07:09:03;;;;;;;;;;;;;;;15.53;92.83;101482.09;5078282;28;19921;-60
2023/05/22 07:11:29;;;;;;;;;;;;;;;15.59;91.92;101489.38;5084607;28;20079;-60
2023/05/22 07:13:54;;;;;;;;;;;;;;;15.55;91.20;101483.56;5071250;28;20389;-60
2023/05/22 07:16:19;;;;;;;;;;;;;;;15.42;90.83;101484.22;5079557;28;19931;-59
2023/05/22 07:18:44;;;;;;;;;;;;;;;15.39;91.65;101492.63;5080796;28;19920;-59
2023/05/22 07:21:10;;;;;;;;;;;;;;;15.43;92.05;101490.41;5075518;28;19916;-59
2023/05/22 07:23:35;;;;;;;;;;;;;;;15.43;91.64;101488.56;5085428;28;19996;-59
2023/05/22 07:26:00;;;;;;;;;;;;;;;15.33;91.02;101482.69;5080455;28;19938;-59
2023/05/22 07:28:25;;;;;;;;;;;;;;;15.29;90.26;101493.91;5072719;28;19916;-59
2023/05/22 07:30:51;;;;;;;;;;;;;;;15.24;90.79;101493.66;5077586;28;19980;-59
2023/05/22 07:33:16;;;;;;;;;;;;;;;15.22;91.15;101487.66;5083727;28;19927;-59
2023/05/22 07:35:41;;;;;;;;;;;;;;;15.21;91.32;101491.34;5085298;28;20396;-59
2023/05/22 07:38:06;;;;;;;;;;;;;;;15.21;91.94;101488.66;5079295;28;19927;-59
2023/05/22 07:40:31;;;;;;;;;;;;;;;15.29;92.08;101500.09;5084907;28;19916;-59
2023/05/22 07:42:56;;;;;;;;;;;;;;;15.39;92.50;101495.31;5081486;28;20072;-59
2023/05/22 07:45:22;;;;;;;;;;;;;;;15.44;92.99;101506.28;5076395;28;19920;-59
2023/05/22 07:47:47;;;;;;;;;;;;;;;15.42;92.90;101504.81;5073048;28;19945;-59
2023/05/22 07:50:12;;;;;;;;;;;;;;;15.42;92.50;101496.78;5083831;28;19919;-59
2023/05/22 07:52:37;;;;;;;;;;;;;;;15.46;91.85;101508.78;5075538;28;20377;-58
2023/05/22 07:55:02;;;;;;;;;;;;;;;15.55;91.76;101512.16;5073216;28;19928;-60
2023/05/22 07:57:28;;;;;;;;;;;;;;;15.54;90.83;101505.97;5071549;28;19922;-60
2023/05/22 07:59:54;;;;;;;;;;;;;;;15.54;91.94;101510.50;5075606;28;20026;-60
2023/05/22 08:02:19;;;;;;;;;;;;;;;15.59;93.02;101508.13;5080764;28;19955;-62
2023/05/22 08:04:44;;;;;;;;;;;;;;;15.66;94.62;101506.38;5082783;28;19920;-62
2023/05/22 08:07:09;;;;;;;;;;;;;;;15.76;94.97;101509.59;5083159;28;19916;-62
2023/05/22 08:09:35;;;;;;;;;;;;;;;15.83;93.62;101515.00;5085545;28;20396;-61
2023/05/22 08:12:00;;;;;;;;;;;;;;;15.82;92.78;101521.38;5083343;28;20421;-61
2023/05/22 08:14:25;;;;;;;;;;;;;;;15.85;91.68;101519.16;5081743;28;19928;-61
2023/05/22 08:16:50;;;;;;;;;;;;;;;15.87;92.75;101513.63;5080544;28;20361;-61
2023/05/22 08:19:15;;;;;;;;;;;;;;;15.97;93.24;101511.47;5080918;28;19917;-61
2023/05/22 08:21:41;;;;;;;;;;;;;;;16.09;93.11;101504.59;5080976;28;19942;-61
2023/05/22 08:24:06;;;;;;;;;;;;;;;16.11;93.27;101508.75;5077604;28;20386;-61
2023/05/22 08:26:32;;;;;;;;;;;;;;;16.16;92.72;101504.66;5078826;28;19946;-61
2023/05/22 08:28:57;;;;;;;;;;;;;;;16.25;92.21;101511.56;5074107;28;19923;-61
2023/05/22 08:31:23;;;;;;;;;;;;;;;16.38;93.51;101499.09;5084309;28;19924;-61
2023/05/22 08:33:48;;;;;;;;;;;;;;;16.47;93.19;101507.84;5084492;28;20370;-61
2023/05/22 08:36:13;;;;;;;;;;;;;;;16.54;93.18;101507.91;5074734;28;20003;-60
2023/05/22 08:38:39;;;;;;;;;;;;;;;16.61;92.91;101503.44;5086000;28;19912;-60
2023/05/22 08:41:05;;;;;;;;;;;;;;;16.67;92.91;101502.69;5081433;28;19966;-60
2023/05/22 08:43:30;;;;;;;;;;;;;;;16.79;92.52;101498.47;5086534;28;19943;-61
2023/05/22 08:45:59;;;;;;;;;;;;;;;16.94;92.80;101503.72;5082701;28;20408;-61
2023/05/22 08:48:28;;;;;;;;;;;;;;;17.07;92.77;101498.44;5077850;28;20309;-61
2023/05/22 08:50:57;;;;;;;;;;;;;;;17.23;92.47;101500.78;5080181;28;19963;-61
2023/05/22 08:53:26;;;;;;;;;;;;;;;17.35;91.70;101506.44;5084625;28;20001;-61
2023/05/22 08:55:52;;;;;;;;;;;;;;;17.46;91.26;101505.03;5080321;28;19939;-61
2023/05/22 08:58:17;;;;;;;;;;;;;;;17.59;91.44;101510.47;5085667;28;19917;-61
2023/05/22 09:00:42;;;;;;;;;;;;;;;17.72;90.83;101499.81;5086091;28;20018;-61
2023/05/22 09:03:12;;;;;;;;;;;;;;;17.81;90.05;101503.16;5082542;28;19993;-61
2023/05/22 09:05:38;;;;;;;;;;;;;;;17.93;90.34;101493.47;5083114;28;19913;-61
2023/05/22 09:08:03;;;;;;;;;;;;;;;18.14;90.56;101503.22;5068026;28;19912;-60
2023/05/22 09:10:28;;;;;;;;;;;;;;;18.32;89.43;101498.09;5080441;28;20406;-61
2023/05/22 09:13:02;;;;;;;;;;;;;;;18.38;88.54;101499.13;5084352;28;19923;-61
2023/05/22 09:15:28;;;;;;;;;;;;;;;18.47;88.01;101497.88;5077017;28;19996;-60
2023/05/22 09:17:54;;;;;;;;;;;;;;;18.66;87.37;101507.84;5076233;28;19916;-61
2023/05/22 09:20:20;;;;;;;;;;;;;;;18.60;86.91;101505.13;5080125;28;19965;-61
2023/05/22 09:22:45;;;;;;;;;;;;;;;18.57;86.02;101506.38;5078390;28;19920;-61
2023/05/22 09:25:16;;;;;;;;;;;;;;;18.62;86.06;101506.63;5075025;28;19916;-61
2023/05/22 09:27:43;;;;;;;;;;;;;;;18.75;85.91;101505.78;5072255;28;19916;-61
2023/05/22 09:30:08;;;;;;;;;;;;;;;18.78;85.40;101500.78;5082360;28;20006;-61
2023/05/22 09:32:34;;;;;;;;;;;;;;;18.80;85.37;101504.13;5081150;28;20002;-61
2023/05/22 09:35:03;;;;;;;;;;;;;;;18.80;84.85;101501.44;5083563;28;19912;-61
2023/05/22 09:37:31;;;;;;;;;;;;;;;18.89;84.95;101499.34;5079276;28;19916;-61
2023/05/22 09:39:57;;;;;;;;;;;;;;;19.08;84.65;101492.25;5078217;28;20316;-61
2023/05/22 09:42:24;;;;;;;;;;;;;;;19.14;84.06;101491.44;5074449;28;20448;-61
2023/05/22 09:44:50;;;;;;;;;;;;;;;19.25;83.54;101482.69;5069981;28;20530;-62
2023/05/22 09:47:15;;;;;;;;;;;;;;;19.38;83.33;101487.22;5070390;28;19916;-61
2023/05/22 09:49:42;;;;;;;;;;;;;;;19.61;83.71;101494.81;5072900;28;19916;-61
2023/05/22 09:52:08;;;;;;;;;;;;;;;19.87;82.85;101485.78;5068992;28;20002;-61
2023/05/22 09:54:33;;;;;;;;;;;;;;;20.10;82.20;101484.19;5083582;28;20015;-61
2023/05/22 09:56:59;;;;;;;;;;;;;;;20.28;81.56;101485.31;5075839;28;20007;-61
2023/05/22 09:59:28;;;;;;;;;;;;;;;20.39;80.59;101481.91;5070307;28;19921;-61
2023/05/22 10:01:54;;;;;;;;;;;;;;;20.50;79.93;101485.78;5067992;28;19929;-61
2023/05/22 10:04:21;;;;;;;;;;;;;;;20.56;78.68;101490.31;5074037;28;19962;-61
2023/05/22 10:06:49;;;;;;;;;;;;;;;20.70;78.52;101481.03;5075005;28;19912;-61
2023/05/22 10:09:18;;;;;;;;;;;;;;;20.91;77.78;101482.50;5066334;28;19931;-60
2023/05/22 10:11:43;;;;;;;;;;;;;;;21.01;77.36;101483.63;5069019;28;19916;-60
2023/05/22 10:14:09;;;;;;;;;;;;;;;21.13;76.19;101491.84;5070834;28;19942;-61
2023/05/22 10:16:37;;;;;;;;;;;;;;;21.15;76.04;101494.31;5073576;28;20408;-61
2023/05/22 10:19:02;;;;;;;;;;;;;;;21.29;76.04;101485.03;5074039;28;19912;-60
2023/05/22 10:21:28;;;;;;;;;;;;;;;21.41;74.03;101487.81;5067471;28;19924;-61
2023/05/22 10:23:54;;;;;;;;;;;;;;;21.42;73.45;101489.47;5074765;28;19920;-61
2023/05/22 10:26:20;;;;;;;;;;;;;;;21.53;73.39;101483.28;5067730;28;20304;-60
2023/05/22 10:28:49;;;;;;;;;;;;;;;21.69;72.43;101490.78;5069877;28;19920;-61
2023/05/22 10:31:25;;;;;;;;;;;;;;;21.54;71.32;101491.16;5070648;28;19931;-60
2023/05/22 10:33:54;;;;;;;;;;;;;;;21.41;71.35;101490.53;5076549;28;20405;-61
2023/05/22 10:36:30;;;;;;;;;;;;;;;21.41;70.87;101485.13;5077756;28;19912;-60
2023/05/22 10:38:55;;;;;;;;;;;;;;;21.41;70.89;101485.13;5073338;28;20306;-60
2023/05/22 10:41:24;;;;;;;;;;;;;;;21.40;71.25;101476.19;5080786;28;20401;-61
2023/05/22 10:43:50;;;;;;;;;;;;;;;21.40;71.57;101473.47;5073950;28;19916;-61
2023/05/22 10:46:15;;;;;;;;;;;;;;;21.38;71.12;101470.16;5081235;28;19924;-60
2023/05/22 10:48:47;;;;;;;;;;;;;;;21.44;71.62;101480.09;5077254;28;19916;-60
2023/05/22 10:51:14;;;;;;;;;;;;;;;21.51;71.04;101467.31;5076751;28;19938;-61
2023/05/22 10:53:41;;;;;;;;;;;;;;;21.60;71.14;101474.03;5078103;28;20292;-60
2023/05/22 10:56:13;;;;;;;;;;;;;;;21.56;71.04;101464.72;5073338;28;19917;-61
2023/05/22 10:58:38;;;;;;;;;;;;;;;21.67;71.51;101470.41;5080944;28;19924;-61
2023/05/22 11:01:07;;;;;;;;;;;;;;;21.78;71.85;101470.47;5073409;28;20297;-61
2023/05/22 11:03:54;;;;;;;;;;;;;;;21.96;71.46;101466.88;5069872;28;19961;-61
2023/05/22 11:06:28;;;;;;;;;;;;;;;22.00;69.79;101470.78;5072622;28;19976;-61
2023/05/22 11:08:55;;;;;;;;;;;;;;;22.03;69.61;101464.09;5075822;28;19935;-61
2023/05/22 11:11:23;;;;;;;;;;;;;;;22.11;68.73;101471.91;5081422;28;19916;-61
2023/05/22 11:13:50;;;;;;;;;;;;;;;22.14;69.14;101476.84;5073896;28;19916;-61
2023/05/22 11:16:15;;;;;;;;;;;;;;;22.11;68.27;101471.91;5074259;28;20015;-61
2023/05/22 11:18:41;;;;;;;;;;;;;;;22.01;68.07;101464.34;5075186;28;20024;-61
2023/05/22 11:21:08;;;;;;;;;;;;;;;22.11;68.66;101464.63;5071730;28;19923;-61
2023/05/22 11:23:34;;;;;;;;;;;;;;;22.23;68.67;101464.63;5082890;28;19970;-61
2023/05/22 11:26:16;;;;;;;;;;;;;;;22.29;68.57;101465.59;5080690;28;19916;-61
2023/05/22 11:28:42;;;;;;;;;;;;;;;22.38;68.64;101459.59;5079211;28;20453;-61
2023/05/22 11:31:07;;;;;;;;;;;;;;;22.24;67.20;101466.28;5075249;28;19916;-61
2023/05/22 11:33:32;;;;;;;;;;;;;;;22.32;68.00;101457.84;5077716;28;19912;-61
2023/05/22 11:35:58;;;;;;;;;;;;;;;22.44;67.11;101461.38;5075275;28;19916;-61
2023/05/22 11:38:25;;;;;;;;;;;;;;;22.46;67.01;101467.38;5079848;28;19952;-61
2023/05/22 11:40:50;;;;;;;;;;;;;;;22.64;67.87;101465.63;5079945;28;20407;-61
2023/05/22 11:43:26;;;;;;;;;;;;;;;22.84;66.34;101471.53;5078627;28;20562;-61
2023/05/22 11:45:51;;;;;;;;;;;;;;;22.85;65.40;101462.38;5073665;28;20015;-61
2023/05/22 11:48:18;;;;;;;;;;;;;;;22.97;66.32;101459.63;5073483;28;20467;-61
2023/05/22 11:50:43;;;;;;;;;;;;;;;23.11;65.24;101455.59;5074328;28;19916;-61
2023/05/22 11:53:08;;;;;;;;;;;;;;;23.13;65.75;101454.31;5068304;28;19923;-60
2023/05/22 11:55:34;;;;;;;;;;;;;;;23.21;65.27;101449.59;5076585;28;20311;-59
2023/05/22 11:58:00;;;;;;;;;;;;;;;23.16;64.69;101445.72;5076890;28;19917;-61
2023/05/22 12:00:26;;;;;;;;;;;;;;;23.11;65.34;101445.56;5074336;28;19931;-60
2023/05/22 12:02:51;;;;;;;;;;;;;;;23.15;64.60;101448.66;5076052;28;19921;-61
2023/05/22 12:05:19;;;;;;;;;;;;;;;23.12;64.61;101452.66;5074640;28;19930;-60
2023/05/22 12:07:44;;;;;;;;;;;;;;;23.03;64.26;101445.97;5079208;28;19920;-60
2023/05/22 12:10:09;;;;;;;;;;;;;;;22.99;64.47;101452.91;5078538;28;20531;-60
2023/05/22 12:12:35;;;;;;;;;;;;;;;22.96;64.81;101452.56;5069535;28;19952;-61
2023/05/22 12:15:03;;;;;;;;;;;;;;;23.01;65.85;101450.78;5068673;28;19955;-61
2023/05/22 12:17:28;;;;;;;;;;;;;;;23.17;65.54;101449.25;5081619;28;19919;-60
2023/05/22 12:19:54;;;;;;;;;;;;;;;23.30;64.89;101453.56;5075000;28;19963;-61
2023/05/22 12:22:21;;;;;;;;;;;;;;;23.37;64.83;101444.22;5073193;28;19946;-61
2023/05/22 12:24:50;;;;;;;;;;;;;;;23.59;64.59;101440.88;5077352;28;19962;-61
2023/05/22 12:27:15;;;;;;;;;;;;;;;23.69;63.78;101441.88;5079483;28;20391;-61
2023/05/22 12:29:41;;;;;;;;;;;;;;;23.69;63.81;101447.31;5070645;28;19912;-61